sensor_id;sensor_type;location;lat;lon;timestamp;P1;durP1;ratioP1;P2;durP2;ratioP2
13343;SDS011;6741;48.964;9.406;2023-06-22T00:01:15;8.55;;;7.10;;
13343;SDS011;6741;48.964;9.406;2023-06-22T00:03:42;10.45;;;7.97;;
13343;SDS011;6741;48.964;9.406;2023-06-22T00:06:09;8.52;;;7.55;;
13343;SDS011;6741;48.964;9.406;2023-06-22T00:08:37;9.07;;;7.35;;
13343;SDS011;6741;48.964;9.406;2023-06-22T00:11:04;7.82;;;7.13;;
13343;SDS011;6741;48.964;9.406;2023-06-22T00:13:31;8.32;;;7.22;;
13343;SDS011;6741;48.964;9.406;2023-06-22T00:15:58;8.95;;;7.18;;
13343;SDS011;6741;48.964;9.406;2023-06-22T00:18:24;8.35;;;7.03;;
13343;SDS011;6741;48.964;9.406;2023-06-22T00:20:53;11.73;;;8.38;;
13343;SDS011;6741;48.964;9.406;2023-06-22T00:23:23;12.40;;;8.50;;
13343;SDS011;6741;48.964;9.406;2023-06-22T00:25:51;8.20;;;7.43;;
13343;SDS011;6741;48.964;9.406;2023-06-22T00:28:18;8.98;;;7.70;;
13343;SDS011;6741;48.964;9.406;2023-06-22T00:30:45;9.70;;;7.60;;
13343;SDS011;6741;48.964;9.406;2023-06-22T00:33:12;8.38;;;7.60;;
13343;SDS011;6741;48.964;9.406;2023-06-22T00:35:41;7.95;;;7.25;;
13343;SDS011;6741;48.964;9.406;2023-06-22T00:38:08;10.80;;;7.70;;
13343;SDS011;6741;48.964;9.406;2023-06-22T00:40:35;9.52;;;7.45;;
13343;SDS011;6741;48.964;9.406;2023-06-22T00:43:04;9.02;;;7.93;;
13343;SDS011;6741;48.964;9.406;2023-06-22T00:45:31;7.70;;;6.95;;
13343;SDS011;6741;48.964;9.406;2023-06-22T00:47:58;9.60;;;7.78;;
13343;SDS011;6741;48.964;9.406;2023-06-22T00:50:26;7.97;;;7.18;;
13343;SDS011;6741;48.964;9.406;2023-06-22T00:52:58;8.73;;;7.13;;
13343;SDS011;6741;48.964;9.406;2023-06-22T00:55:27;8.80;;;7.90;;
13343;SDS011;6741;48.964;9.406;2023-06-22T00:57:55;8.13;;;7.32;;
13343;SDS011;6741;48.964;9.406;2023-06-22T01:00:24;9.73;;;8.23;;
13343;SDS011;6741;48.964;9.406;2023-06-22T01:02:51;9.57;;;8.43;;
13343;SDS011;6741;48.964;9.406;2023-06-22T01:05:19;9.40;;;8.50;;
13343;SDS011;6741;48.964;9.406;2023-06-22T01:08:00;11.05;;;8.77;;
13343;SDS011;6741;48.964;9.406;2023-06-22T01:10:34;9.43;;;8.52;;
13343;SDS011;6741;48.964;9.406;2023-06-22T01:13:07;9.07;;;8.15;;
13343;SDS011;6741;48.964;9.406;2023-06-22T01:15:42;9.40;;;7.85;;
13343;SDS011;6741;48.964;9.406;2023-06-22T01:18:14;8.70;;;7.80;;
13343;SDS011;6741;48.964;9.406;2023-06-22T01:20:43;8.85;;;8.05;;
13343;SDS011;6741;48.964;9.406;2023-06-22T01:23:11;8.50;;;7.70;;
13343;SDS011;6741;48.964;9.406;2023-06-22T01:26:05;9.25;;;8.35;;
13343;SDS011;6741;48.964;9.406;2023-06-22T01:28:44;8.93;;;8.05;;
13343;SDS011;6741;48.964;9.406;2023-06-22T01:31:13;8.88;;;7.97;;
13343;SDS011;6741;48.964;9.406;2023-06-22T01:33:43;10.55;;;9.07;;
13343;SDS011;6741;48.964;9.406;2023-06-22T01:36:11;9.00;;;8.20;;
13343;SDS011;6741;48.964;9.406;2023-06-22T01:38:39;9.75;;;8.75;;
13343;SDS011;6741;48.964;9.406;2023-06-22T01:41:08;10.10;;;9.15;;
13343;SDS011;6741;48.964;9.406;2023-06-22T01:43:36;10.18;;;9.18;;
13343;SDS011;6741;48.964;9.406;2023-06-22T01:46:04;11.98;;;9.82;;
13343;SDS011;6741;48.964;9.406;2023-06-22T01:48:31;13.00;;;10.98;;
13343;SDS011;6741;48.964;9.406;2023-06-22T01:50:58;11.50;;;10.30;;
13343;SDS011;6741;48.964;9.406;2023-06-22T01:53:26;11.05;;;9.95;;
13343;SDS011;6741;48.964;9.406;2023-06-22T01:55:52;10.77;;;9.77;;
13343;SDS011;6741;48.964;9.406;2023-06-22T01:58:20;10.80;;;9.65;;
13343;SDS011;6741;48.964;9.406;2023-06-22T02:00:50;10.50;;;9.20;;
13343;SDS011;6741;48.964;9.406;2023-06-22T02:03:26;10.15;;;9.15;;
13343;SDS011;6741;48.964;9.406;2023-06-22T02:05:56;10.05;;;8.90;;
13343;SDS011;6741;48.964;9.406;2023-06-22T02:08:30;11.02;;;10.02;;
13343;SDS011;6741;48.964;9.406;2023-06-22T02:10:59;11.20;;;10.20;;
13343;SDS011;6741;48.964;9.406;2023-06-22T02:13:28;11.45;;;10.27;;
13343;SDS011;6741;48.964;9.406;2023-06-22T02:15:56;10.80;;;9.70;;
13343;SDS011;6741;48.964;9.406;2023-06-22T02:18:25;10.70;;;9.60;;
13343;SDS011;6741;48.964;9.406;2023-06-22T02:20:52;11.35;;;8.68;;
13343;SDS011;6741;48.964;9.406;2023-06-22T02:23:19;10.65;;;9.25;;
13343;SDS011;6741;48.964;9.406;2023-06-22T02:25:46;14.65;;;9.70;;
13343;SDS011;6741;48.964;9.406;2023-06-22T02:28:13;13.40;;;9.38;;
13343;SDS011;6741;48.964;9.406;2023-06-22T02:30:40;10.57;;;9.48;;
13343;SDS011;6741;48.964;9.406;2023-06-22T02:33:07;9.75;;;8.80;;
13343;SDS011;6741;48.964;9.406;2023-06-22T02:35:35;10.45;;;9.35;;
13343;SDS011;6741;48.964;9.406;2023-06-22T02:38:02;11.05;;;9.00;;
13343;SDS011;6741;48.964;9.406;2023-06-22T02:40:30;10.38;;;9.38;;
13343;SDS011;6741;48.964;9.406;2023-06-22T02:42:57;10.73;;;8.93;;
13343;SDS011;6741;48.964;9.406;2023-06-22T02:45:27;11.35;;;9.30;;
13343;SDS011;6741;48.964;9.406;2023-06-22T02:47:54;10.05;;;9.05;;
13343;SDS011;6741;48.964;9.406;2023-06-22T02:50:21;11.40;;;10.13;;
13343;SDS011;6741;48.964;9.406;2023-06-22T02:52:49;12.45;;;9.20;;
13343;SDS011;6741;48.964;9.406;2023-06-22T02:55:16;10.95;;;8.88;;
13343;SDS011;6741;48.964;9.406;2023-06-22T02:57:43;10.90;;;9.35;;
13343;SDS011;6741;48.964;9.406;2023-06-22T03:00:12;11.25;;;10.02;;
13343;SDS011;6741;48.964;9.406;2023-06-22T03:02:42;13.35;;;10.23;;
13343;SDS011;6741;48.964;9.406;2023-06-22T03:05:09;15.00;;;10.60;;
13343;SDS011;6741;48.964;9.406;2023-06-22T03:07:38;14.02;;;11.07;;
13343;SDS011;6741;48.964;9.406;2023-06-22T03:10:08;14.38;;;10.68;;
13343;SDS011;6741;48.964;9.406;2023-06-22T03:12:35;12.00;;;10.82;;
13343;SDS011;6741;48.964;9.406;2023-06-22T03:15:03;11.80;;;10.60;;
13343;SDS011;6741;48.964;9.406;2023-06-22T03:17:31;12.73;;;9.60;;
13343;SDS011;6741;48.964;9.406;2023-06-22T03:19:58;19.38;;;10.95;;
13343;SDS011;6741;48.964;9.406;2023-06-22T03:22:25;11.20;;;10.10;;
13343;SDS011;6741;48.964;9.406;2023-06-22T03:24:52;15.45;;;11.73;;
13343;SDS011;6741;48.964;9.406;2023-06-22T03:27:20;12.75;;;11.05;;
13343;SDS011;6741;48.964;9.406;2023-06-22T03:29:47;12.20;;;10.68;;
13343;SDS011;6741;48.964;9.406;2023-06-22T03:32:14;13.40;;;11.68;;
13343;SDS011;6741;48.964;9.406;2023-06-22T03:34:41;14.32;;;12.55;;
13343;SDS011;6741;48.964;9.406;2023-06-22T03:37:12;14.63;;;12.15;;
13343;SDS011;6741;48.964;9.406;2023-06-22T03:39:39;13.38;;;12.07;;
13343;SDS011;6741;48.964;9.406;2023-06-22T03:42:06;14.38;;;12.90;;
13343;SDS011;6741;48.964;9.406;2023-06-22T03:44:35;14.38;;;12.32;;
13343;SDS011;6741;48.964;9.406;2023-06-22T03:47:02;12.88;;;11.57;;
13343;SDS011;6741;48.964;9.406;2023-06-22T03:49:31;13.35;;;12.00;;
13343;SDS011;6741;48.964;9.406;2023-06-22T03:51:59;13.43;;;12.02;;
13343;SDS011;6741;48.964;9.406;2023-06-22T03:54:26;13.27;;;11.95;;
13343;SDS011;6741;48.964;9.406;2023-06-22T03:56:53;13.45;;;12.05;;
13343;SDS011;6741;48.964;9.406;2023-06-22T03:59:19;15.80;;;13.20;;
13343;SDS011;6741;48.964;9.406;2023-06-22T04:01:48;14.52;;;12.68;;
13343;SDS011;6741;48.964;9.406;2023-06-22T04:04:15;12.82;;;11.48;;
13343;SDS011;6741;48.964;9.406;2023-06-22T04:06:42;15.07;;;13.27;;
13343;SDS011;6741;48.964;9.406;2023-06-22T04:09:09;15.23;;;12.95;;
13343;SDS011;6741;48.964;9.406;2023-06-22T04:11:36;13.88;;;12.38;;
13343;SDS011;6741;48.964;9.406;2023-06-22T04:14:03;14.32;;;11.75;;
13343;SDS011;6741;48.964;9.406;2023-06-22T04:16:30;13.02;;;11.82;;
13343;SDS011;6741;48.964;9.406;2023-06-22T04:18:58;12.80;;;11.52;;
13343;SDS011;6741;48.964;9.406;2023-06-22T04:21:25;13.70;;;11.85;;
13343;SDS011;6741;48.964;9.406;2023-06-22T04:23:52;12.85;;;10.82;;
13343;SDS011;6741;48.964;9.406;2023-06-22T04:26:19;12.93;;;11.43;;
13343;SDS011;6741;48.964;9.406;2023-06-22T04:28:46;13.30;;;11.73;;
13343;SDS011;6741;48.964;9.406;2023-06-22T04:31:16;12.43;;;11.10;;
13343;SDS011;6741;48.964;9.406;2023-06-22T04:33:43;13.73;;;11.32;;
13343;SDS011;6741;48.964;9.406;2023-06-22T04:36:11;15.25;;;12.05;;
13343;SDS011;6741;48.964;9.406;2023-06-22T04:38:38;12.65;;;11.10;;
13343;SDS011;6741;48.964;9.406;2023-06-22T04:41:05;12.70;;;11.50;;
13343;SDS011;6741;48.964;9.406;2023-06-22T04:43:34;12.23;;;10.95;;
13343;SDS011;6741;48.964;9.406;2023-06-22T04:46:01;12.48;;;10.77;;
13343;SDS011;6741;48.964;9.406;2023-06-22T04:48:29;11.63;;;10.43;;
13343;SDS011;6741;48.964;9.406;2023-06-22T04:50:57;11.30;;;10.18;;
13343;SDS011;6741;48.964;9.406;2023-06-22T04:53:31;10.95;;;9.85;;
13343;SDS011;6741;48.964;9.406;2023-06-22T04:55:57;12.43;;;10.05;;
13343;SDS011;6741;48.964;9.406;2023-06-22T04:58:24;12.40;;;10.95;;
13343;SDS011;6741;48.964;9.406;2023-06-22T05:00:53;11.07;;;9.98;;
13343;SDS011;6741;48.964;9.406;2023-06-22T05:03:22;15.55;;;11.00;;
13343;SDS011;6741;48.964;9.406;2023-06-22T05:05:51;11.98;;;9.73;;
13343;SDS011;6741;48.964;9.406;2023-06-22T05:08:18;11.50;;;10.30;;
13343;SDS011;6741;48.964;9.406;2023-06-22T05:10:47;11.30;;;9.68;;
13343;SDS011;6741;48.964;9.406;2023-06-22T05:13:14;11.57;;;10.38;;
13343;SDS011;6741;48.964;9.406;2023-06-22T05:15:40;13.13;;;9.80;;
13343;SDS011;6741;48.964;9.406;2023-06-22T05:18:07;10.20;;;8.43;;
13343;SDS011;6741;48.964;9.406;2023-06-22T05:20:36;11.57;;;10.00;;
13343;SDS011;6741;48.964;9.406;2023-06-22T05:23:03;10.07;;;9.07;;
13343;SDS011;6741;48.964;9.406;2023-06-22T05:25:30;11.52;;;9.18;;
13343;SDS011;6741;48.964;9.406;2023-06-22T05:27:59;10.02;;;9.00;;
13343;SDS011;6741;48.964;9.406;2023-06-22T05:30:26;11.05;;;9.13;;
13343;SDS011;6741;48.964;9.406;2023-06-22T05:32:54;11.73;;;10.00;;
13343;SDS011;6741;48.964;9.406;2023-06-22T05:35:21;11.52;;;9.07;;
13343;SDS011;6741;48.964;9.406;2023-06-22T05:37:48;10.10;;;8.77;;
13343;SDS011;6741;48.964;9.406;2023-06-22T05:40:14;10.48;;;9.23;;
13343;SDS011;6741;48.964;9.406;2023-06-22T05:42:41;10.05;;;9.07;;
13343;SDS011;6741;48.964;9.406;2023-06-22T05:45:10;11.25;;;9.00;;
13343;SDS011;6741;48.964;9.406;2023-06-22T05:47:37;8.73;;;7.93;;
13343;SDS011;6741;48.964;9.406;2023-06-22T05:50:04;9.77;;;8.73;;
13343;SDS011;6741;48.964;9.406;2023-06-22T05:52:33;9.40;;;8.45;;
13343;SDS011;6741;48.964;9.406;2023-06-22T05:55:01;11.07;;;8.13;;
13343;SDS011;6741;48.964;9.406;2023-06-22T05:57:28;9.63;;;8.63;;
13343;SDS011;6741;48.964;9.406;2023-06-22T05:59:55;9.07;;;8.00;;
13343;SDS011;6741;48.964;9.406;2023-06-22T06:02:23;10.45;;;7.90;;
13343;SDS011;6741;48.964;9.406;2023-06-22T06:04:50;12.05;;;9.23;;
13343;SDS011;6741;48.964;9.406;2023-06-22T06:07:17;8.73;;;7.70;;
13343;SDS011;6741;48.964;9.406;2023-06-22T06:09:44;10.45;;;7.35;;
13343;SDS011;6741;48.964;9.406;2023-06-22T06:12:11;7.75;;;7.07;;
13343;SDS011;6741;48.964;9.406;2023-06-22T06:14:38;12.73;;;7.13;;
13343;SDS011;6741;48.964;9.406;2023-06-22T06:17:05;8.98;;;7.95;;
13343;SDS011;6741;48.964;9.406;2023-06-22T06:19:33;8.05;;;7.25;;
13343;SDS011;6741;48.964;9.406;2023-06-22T06:22:00;7.97;;;7.05;;
13343;SDS011;6741;48.964;9.406;2023-06-22T06:24:27;7.85;;;7.05;;
13343;SDS011;6741;48.964;9.406;2023-06-22T06:26:53;9.85;;;7.32;;
13343;SDS011;6741;48.964;9.406;2023-06-22T06:29:20;7.30;;;6.43;;
13343;SDS011;6741;48.964;9.406;2023-06-22T06:31:48;6.97;;;6.38;;
13343;SDS011;6741;48.964;9.406;2023-06-22T06:34:15;7.78;;;7.00;;
13343;SDS011;6741;48.964;9.406;2023-06-22T06:36:43;9.65;;;7.00;;
13343;SDS011;6741;48.964;9.406;2023-06-22T06:39:10;7.20;;;6.35;;
13343;SDS011;6741;48.964;9.406;2023-06-22T06:41:37;7.97;;;6.85;;
13343;SDS011;6741;48.964;9.406;2023-06-22T06:44:04;7.18;;;6.45;;
13343;SDS011;6741;48.964;9.406;2023-06-22T06:46:31;7.13;;;6.05;;
13343;SDS011;6741;48.964;9.406;2023-06-22T06:48:58;6.82;;;6.15;;
13343;SDS011;6741;48.964;9.406;2023-06-22T06:51:24;7.22;;;6.47;;
13343;SDS011;6741;48.964;9.406;2023-06-22T06:53:53;8.15;;;6.60;;
13343;SDS011;6741;48.964;9.406;2023-06-22T06:56:20;8.38;;;6.85;;
13343;SDS011;6741;48.964;9.406;2023-06-22T06:58:46;10.02;;;6.28;;
13343;SDS011;6741;48.964;9.406;2023-06-22T07:01:15;8.40;;;6.40;;
13343;SDS011;6741;48.964;9.406;2023-06-22T07:03:44;7.05;;;6.38;;
13343;SDS011;6741;48.964;9.406;2023-06-22T07:06:11;7.40;;;5.93;;
13343;SDS011;6741;48.964;9.406;2023-06-22T07:08:37;7.43;;;6.18;;
13343;SDS011;6741;48.964;9.406;2023-06-22T07:11:06;6.53;;;5.95;;
13343;SDS011;6741;48.964;9.406;2023-06-22T07:13:33;7.22;;;6.10;;
13343;SDS011;6741;48.964;9.406;2023-06-22T07:16:00;6.70;;;6.00;;
13343;SDS011;6741;48.964;9.406;2023-06-22T07:18:27;7.85;;;6.47;;
13343;SDS011;6741;48.964;9.406;2023-06-22T07:20:53;6.63;;;6.00;;
13343;SDS011;6741;48.964;9.406;2023-06-22T07:23:20;6.15;;;5.63;;
13343;SDS011;6741;48.964;9.406;2023-06-22T07:25:47;8.30;;;5.85;;
13343;SDS011;6741;48.964;9.406;2023-06-22T07:28:15;7.05;;;5.85;;
13343;SDS011;6741;48.964;9.406;2023-06-22T07:30:42;8.68;;;6.00;;
13343;SDS011;6741;48.964;9.406;2023-06-22T07:33:09;7.18;;;6.47;;
13343;SDS011;6741;48.964;9.406;2023-06-22T07:35:36;8.88;;;6.25;;
13343;SDS011;6741;48.964;9.406;2023-06-22T07:38:03;6.10;;;5.50;;
13343;SDS011;6741;48.964;9.406;2023-06-22T07:40:30;6.20;;;5.53;;
13343;SDS011;6741;48.964;9.406;2023-06-22T07:42:57;6.50;;;5.88;;
13343;SDS011;6741;48.964;9.406;2023-06-22T07:45:25;7.13;;;5.45;;
13343;SDS011;6741;48.964;9.406;2023-06-22T07:47:52;7.22;;;6.13;;
13343;SDS011;6741;48.964;9.406;2023-06-22T07:50:19;6.80;;;5.30;;
13343;SDS011;6741;48.964;9.406;2023-06-22T07:52:45;5.93;;;5.32;;
13343;SDS011;6741;48.964;9.406;2023-06-22T07:55:13;5.30;;;4.80;;
13343;SDS011;6741;48.964;9.406;2023-06-22T07:57:40;8.45;;;5.40;;
13343;SDS011;6741;48.964;9.406;2023-06-22T08:00:07;6.72;;;5.65;;
13343;SDS011;6741;48.964;9.406;2023-06-22T08:02:42;5.68;;;5.07;;
13343;SDS011;6741;48.964;9.406;2023-06-22T08:05:13;7.35;;;5.55;;
13343;SDS011;6741;48.964;9.406;2023-06-22T08:07:40;5.38;;;4.80;;
13343;SDS011;6741;48.964;9.406;2023-06-22T08:10:10;9.52;;;5.20;;
13343;SDS011;6741;48.964;9.406;2023-06-22T08:12:37;5.65;;;5.15;;
13343;SDS011;6741;48.964;9.406;2023-06-22T08:15:05;6.57;;;5.05;;
13343;SDS011;6741;48.964;9.406;2023-06-22T08:17:34;6.80;;;5.47;;
13343;SDS011;6741;48.964;9.406;2023-06-22T08:20:04;6.00;;;5.40;;
13343;SDS011;6741;48.964;9.406;2023-06-22T08:22:34;5.70;;;5.20;;
13343;SDS011;6741;48.964;9.406;2023-06-22T08:25:01;5.72;;;4.78;;
13343;SDS011;6741;48.964;9.406;2023-06-22T08:27:29;5.35;;;4.85;;
13343;SDS011;6741;48.964;9.406;2023-06-22T08:29:57;6.07;;;4.53;;
13343;SDS011;6741;48.964;9.406;2023-06-22T08:32:24;5.03;;;4.63;;
13343;SDS011;6741;48.964;9.406;2023-06-22T08:34:51;7.95;;;4.72;;
13343;SDS011;6741;48.964;9.406;2023-06-22T08:37:20;6.15;;;4.30;;
13343;SDS011;6741;48.964;9.406;2023-06-22T08:39:48;8.70;;;4.25;;
13343;SDS011;6741;48.964;9.406;2023-06-22T08:42:16;5.13;;;4.07;;
13343;SDS011;6741;48.964;9.406;2023-06-22T08:44:43;5.57;;;4.35;;
13343;SDS011;6741;48.964;9.406;2023-06-22T08:47:09;6.70;;;4.80;;
13343;SDS011;6741;48.964;9.406;2023-06-22T08:49:36;6.05;;;4.78;;
13343;SDS011;6741;48.964;9.406;2023-06-22T08:52:03;7.85;;;4.15;;
13343;SDS011;6741;48.964;9.406;2023-06-22T08:54:32;6.10;;;4.43;;
13343;SDS011;6741;48.964;9.406;2023-06-22T08:56:59;6.43;;;4.22;;
13343;SDS011;6741;48.964;9.406;2023-06-22T08:59:26;5.20;;;4.20;;
13343;SDS011;6741;48.964;9.406;2023-06-22T09:01:53;7.35;;;4.60;;
13343;SDS011;6741;48.964;9.406;2023-06-22T09:04:21;6.75;;;4.22;;
13343;SDS011;6741;48.964;9.406;2023-06-22T09:06:48;4.50;;;4.10;;
13343;SDS011;6741;48.964;9.406;2023-06-22T09:09:17;5.70;;;4.25;;
13343;SDS011;6741;48.964;9.406;2023-06-22T09:11:46;6.78;;;4.65;;
13343;SDS011;6741;48.964;9.406;2023-06-22T09:14:13;6.25;;;3.97;;
13343;SDS011;6741;48.964;9.406;2023-06-22T09:16:40;5.47;;;4.53;;
13343;SDS011;6741;48.964;9.406;2023-06-22T09:19:07;6.82;;;4.80;;
13343;SDS011;6741;48.964;9.406;2023-06-22T09:21:34;6.43;;;4.00;;
13343;SDS011;6741;48.964;9.406;2023-06-22T09:24:01;5.65;;;4.45;;
13343;SDS011;6741;48.964;9.406;2023-06-22T09:26:28;7.03;;;4.45;;
13343;SDS011;6741;48.964;9.406;2023-06-22T09:28:56;4.97;;;4.20;;
13343;SDS011;6741;48.964;9.406;2023-06-22T09:31:24;9.02;;;4.80;;
13343;SDS011;6741;48.964;9.406;2023-06-22T09:33:51;8.23;;;5.03;;
13343;SDS011;6741;48.964;9.406;2023-06-22T09:36:19;6.47;;;5.20;;
13343;SDS011;6741;48.964;9.406;2023-06-22T09:38:46;7.35;;;4.75;;
13343;SDS011;6741;48.964;9.406;2023-06-22T09:41:13;6.70;;;4.75;;
13343;SDS011;6741;48.964;9.406;2023-06-22T09:43:41;6.53;;;4.57;;
13343;SDS011;6741;48.964;9.406;2023-06-22T09:46:10;7.00;;;4.95;;
13343;SDS011;6741;48.964;9.406;2023-06-22T09:48:37;5.50;;;4.50;;
13343;SDS011;6741;48.964;9.406;2023-06-22T09:51:04;7.97;;;5.05;;
13343;SDS011;6741;48.964;9.406;2023-06-22T09:53:31;8.10;;;5.18;;
13343;SDS011;6741;48.964;9.406;2023-06-22T09:55:59;7.70;;;4.70;;
13343;SDS011;6741;48.964;9.406;2023-06-22T09:58:26;6.32;;;4.65;;
13343;SDS011;6741;48.964;9.406;2023-06-22T10:00:53;5.78;;;4.65;;
13343;SDS011;6741;48.964;9.406;2023-06-22T10:03:22;9.63;;;5.72;;
13343;SDS011;6741;48.964;9.406;2023-06-22T10:05:49;9.23;;;5.43;;
13343;SDS011;6741;48.964;9.406;2023-06-22T10:08:16;6.55;;;4.28;;
13343;SDS011;6741;48.964;9.406;2023-06-22T10:10:42;8.10;;;5.28;;
13343;SDS011;6741;48.964;9.406;2023-06-22T10:13:10;6.82;;;4.78;;
13343;SDS011;6741;48.964;9.406;2023-06-22T10:15:37;5.32;;;4.47;;
13343;SDS011;6741;48.964;9.406;2023-06-22T10:18:04;7.50;;;4.82;;
13343;SDS011;6741;48.964;9.406;2023-06-22T10:20:32;6.57;;;4.60;;
13343;SDS011;6741;48.964;9.406;2023-06-22T10:22:59;7.03;;;4.40;;
13343;SDS011;6741;48.964;9.406;2023-06-22T10:25:26;8.57;;;4.53;;
13343;SDS011;6741;48.964;9.406;2023-06-22T10:27:53;8.68;;;4.40;;
13343;SDS011;6741;48.964;9.406;2023-06-22T10:30:20;10.10;;;4.93;;
13343;SDS011;6741;48.964;9.406;2023-06-22T10:32:48;4.93;;;4.43;;
13343;SDS011;6741;48.964;9.406;2023-06-22T10:35:15;7.60;;;4.80;;
13343;SDS011;6741;48.964;9.406;2023-06-22T10:37:43;5.82;;;4.40;;
13343;SDS011;6741;48.964;9.406;2023-06-22T10:40:12;9.30;;;4.38;;
13343;SDS011;6741;48.964;9.406;2023-06-22T10:42:40;8.23;;;5.00;;
13343;SDS011;6741;48.964;9.406;2023-06-22T10:45:07;7.05;;;4.63;;
13343;SDS011;6741;48.964;9.406;2023-06-22T10:47:35;8.05;;;4.38;;
13343;SDS011;6741;48.964;9.406;2023-06-22T10:50:02;5.00;;;4.15;;
13343;SDS011;6741;48.964;9.406;2023-06-22T10:52:30;10.07;;;4.85;;
13343;SDS011;6741;48.964;9.406;2023-06-22T10:54:58;6.22;;;4.40;;
13343;SDS011;6741;48.964;9.406;2023-06-22T10:57:28;8.02;;;4.97;;
13343;SDS011;6741;48.964;9.406;2023-06-22T10:59:54;8.23;;;4.72;;
13343;SDS011;6741;48.964;9.406;2023-06-22T11:02:21;6.88;;;4.22;;
13343;SDS011;6741;48.964;9.406;2023-06-22T11:04:49;7.00;;;4.28;;
13343;SDS011;6741;48.964;9.406;2023-06-22T11:07:16;8.48;;;4.63;;
13343;SDS011;6741;48.964;9.406;2023-06-22T11:09:43;7.32;;;4.72;;
13343;SDS011;6741;48.964;9.406;2023-06-22T11:12:11;5.95;;;4.43;;
13343;SDS011;6741;48.964;9.406;2023-06-22T11:14:38;6.85;;;5.03;;
13343;SDS011;6741;48.964;9.406;2023-06-22T11:17:05;8.52;;;4.93;;
13343;SDS011;6741;48.964;9.406;2023-06-22T11:19:32;8.55;;;4.72;;
13343;SDS011;6741;48.964;9.406;2023-06-22T11:21:59;8.60;;;4.78;;
13343;SDS011;6741;48.964;9.406;2023-06-22T11:24:26;6.97;;;4.90;;
13343;SDS011;6741;48.964;9.406;2023-06-22T11:26:53;7.82;;;4.90;;
13343;SDS011;6741;48.964;9.406;2023-06-22T11:29:21;7.68;;;4.85;;
13343;SDS011;6741;48.964;9.406;2023-06-22T11:31:48;6.40;;;4.55;;
13343;SDS011;6741;48.964;9.406;2023-06-22T11:34:14;7.97;;;5.35;;
13343;SDS011;6741;48.964;9.406;2023-06-22T11:36:41;6.57;;;4.90;;
13343;SDS011;6741;48.964;9.406;2023-06-22T11:39:09;6.53;;;4.60;;
13343;SDS011;6741;48.964;9.406;2023-06-22T11:41:36;8.32;;;4.90;;
13343;SDS011;6741;48.964;9.406;2023-06-22T11:44:04;5.63;;;4.40;;
13343;SDS011;6741;48.964;9.406;2023-06-22T11:46:33;7.43;;;4.32;;
13343;SDS011;6741;48.964;9.406;2023-06-22T11:49:00;8.23;;;4.78;;
13343;SDS011;6741;48.964;9.406;2023-06-22T11:51:27;6.00;;;4.28;;
13343;SDS011;6741;48.964;9.406;2023-06-22T11:53:56;6.57;;;5.15;;
13343;SDS011;6741;48.964;9.406;2023-06-22T11:56:23;7.40;;;4.70;;
13343;SDS011;6741;48.964;9.406;2023-06-22T11:58:53;7.95;;;5.05;;
13343;SDS011;6741;48.964;9.406;2023-06-22T12:01:20;6.03;;;4.35;;
13343;SDS011;6741;48.964;9.406;2023-06-22T12:03:49;7.88;;;4.63;;
13343;SDS011;6741;48.964;9.406;2023-06-22T12:06:17;8.68;;;5.25;;
13343;SDS011;6741;48.964;9.406;2023-06-22T12:08:44;10.18;;;5.13;;
13343;SDS011;6741;48.964;9.406;2023-06-22T12:11:11;7.50;;;4.60;;
13343;SDS011;6741;48.964;9.406;2023-06-22T12:13:38;8.90;;;4.85;;
13343;SDS011;6741;48.964;9.406;2023-06-22T12:16:05;6.65;;;4.70;;
13343;SDS011;6741;48.964;9.406;2023-06-22T12:18:32;9.73;;;5.07;;
13343;SDS011;6741;48.964;9.406;2023-06-22T12:21:00;8.57;;;4.72;;
13343;SDS011;6741;48.964;9.406;2023-06-22T12:23:27;6.82;;;4.93;;
13343;SDS011;6741;48.964;9.406;2023-06-22T12:25:54;9.63;;;5.18;;
13343;SDS011;6741;48.964;9.406;2023-06-22T12:28:21;8.65;;;4.93;;
13343;SDS011;6741;48.964;9.406;2023-06-22T12:30:48;7.78;;;5.00;;
13343;SDS011;6741;48.964;9.406;2023-06-22T12:33:15;8.10;;;4.72;;
13343;SDS011;6741;48.964;9.406;2023-06-22T12:35:43;7.07;;;4.88;;
13343;SDS011;6741;48.964;9.406;2023-06-22T12:38:12;6.85;;;5.20;;
13343;SDS011;6741;48.964;9.406;2023-06-22T12:40:39;7.70;;;5.03;;
13343;SDS011;6741;48.964;9.406;2023-06-22T12:43:06;7.82;;;4.82;;
13343;SDS011;6741;48.964;9.406;2023-06-22T12:45:33;8.80;;;5.68;;
13343;SDS011;6741;48.964;9.406;2023-06-22T12:48:00;13.77;;;5.55;;
13343;SDS011;6741;48.964;9.406;2023-06-22T12:50:27;9.40;;;5.45;;
13343;SDS011;6741;48.964;9.406;2023-06-22T12:52:54;11.50;;;5.70;;
13343;SDS011;6741;48.964;9.406;2023-06-22T12:55:22;9.95;;;5.47;;
13343;SDS011;6741;48.964;9.406;2023-06-22T12:57:49;9.38;;;4.88;;
13343;SDS011;6741;48.964;9.406;2023-06-22T13:00:16;8.85;;;4.53;;
13343;SDS011;6741;48.964;9.406;2023-06-22T13:02:43;9.30;;;5.15;;
13343;SDS011;6741;48.964;9.406;2023-06-22T13:05:10;10.98;;;5.25;;
13343;SDS011;6741;48.964;9.406;2023-06-22T13:07:37;9.30;;;5.15;;
13343;SDS011;6741;48.964;9.406;2023-06-22T13:10:04;7.60;;;5.45;;
13343;SDS011;6741;48.964;9.406;2023-06-22T13:12:33;9.82;;;5.53;;
13343;SDS011;6741;48.964;9.406;2023-06-22T13:15:00;8.27;;;5.38;;
13343;SDS011;6741;48.964;9.406;2023-06-22T13:17:28;6.82;;;4.78;;
13343;SDS011;6741;48.964;9.406;2023-06-22T13:19:55;12.15;;;5.57;;
13343;SDS011;6741;48.964;9.406;2023-06-22T13:22:28;9.35;;;5.57;;
13343;SDS011;6741;48.964;9.406;2023-06-22T13:24:56;11.05;;;5.53;;
13343;SDS011;6741;48.964;9.406;2023-06-22T13:27:23;8.65;;;5.45;;
13343;SDS011;6741;48.964;9.406;2023-06-22T13:29:51;10.27;;;5.18;;
13343;SDS011;6741;48.964;9.406;2023-06-22T13:32:18;11.15;;;5.70;;
13343;SDS011;6741;48.964;9.406;2023-06-22T13:34:45;9.88;;;5.18;;
13343;SDS011;6741;48.964;9.406;2023-06-22T13:37:12;10.27;;;5.22;;
13343;SDS011;6741;48.964;9.406;2023-06-22T13:39:39;9.55;;;5.03;;
13343;SDS011;6741;48.964;9.406;2023-06-22T13:42:06;12.07;;;5.93;;
13343;SDS011;6741;48.964;9.406;2023-06-22T13:44:33;10.70;;;5.32;;
13343;SDS011;6741;48.964;9.406;2023-06-22T13:47:02;8.88;;;5.18;;
13343;SDS011;6741;48.964;9.406;2023-06-22T13:49:29;9.10;;;5.20;;
13343;SDS011;6741;48.964;9.406;2023-06-22T13:51:56;9.00;;;5.65;;
13343;SDS011;6741;48.964;9.406;2023-06-22T13:54:23;6.32;;;4.57;;
13343;SDS011;6741;48.964;9.406;2023-06-22T13:56:50;7.60;;;5.47;;
13343;SDS011;6741;48.964;9.406;2023-06-22T13:59:17;8.15;;;5.13;;
13343;SDS011;6741;48.964;9.406;2023-06-22T14:01:44;10.38;;;5.03;;
13343;SDS011;6741;48.964;9.406;2023-06-22T14:04:13;7.82;;;5.10;;
13343;SDS011;6741;48.964;9.406;2023-06-22T14:06:40;10.43;;;5.97;;
13343;SDS011;6741;48.964;9.406;2023-06-22T14:09:07;9.63;;;6.22;;
13343;SDS011;6741;48.964;9.406;2023-06-22T14:11:34;8.88;;;5.80;;
13343;SDS011;6741;48.964;9.406;2023-06-22T14:14:01;10.95;;;5.63;;
13343;SDS011;6741;48.964;9.406;2023-06-22T14:16:28;11.57;;;5.53;;
13343;SDS011;6741;48.964;9.406;2023-06-22T14:18:55;7.78;;;5.25;;
13343;SDS011;6741;48.964;9.406;2023-06-22T14:21:23;11.55;;;5.35;;
13343;SDS011;6741;48.964;9.406;2023-06-22T14:23:50;10.40;;;4.85;;
13343;SDS011;6741;48.964;9.406;2023-06-22T14:26:17;8.15;;;5.57;;
13343;SDS011;6741;48.964;9.406;2023-06-22T14:28:46;8.50;;;4.97;;
13343;SDS011;6741;48.964;9.406;2023-06-22T14:31:13;5.82;;;5.22;;
13343;SDS011;6741;48.964;9.406;2023-06-22T14:33:41;7.97;;;5.03;;
13343;SDS011;6741;48.964;9.406;2023-06-22T14:36:13;9.00;;;5.60;;
13343;SDS011;6741;48.964;9.406;2023-06-22T14:38:41;8.38;;;5.03;;
13343;SDS011;6741;48.964;9.406;2023-06-22T14:41:09;12.10;;;5.45;;
13343;SDS011;6741;48.964;9.406;2023-06-22T14:43:35;8.88;;;5.10;;
13343;SDS011;6741;48.964;9.406;2023-06-22T14:46:02;9.68;;;5.35;;
13343;SDS011;6741;48.964;9.406;2023-06-22T14:48:29;8.57;;;5.18;;
13343;SDS011;6741;48.964;9.406;2023-06-22T14:50:56;8.32;;;6.03;;
13343;SDS011;6741;48.964;9.406;2023-06-22T14:53:25;9.75;;;5.32;;
13343;SDS011;6741;48.964;9.406;2023-06-22T14:55:53;8.57;;;5.43;;
13343;SDS011;6741;48.964;9.406;2023-06-22T14:58:21;10.65;;;5.82;;